createdAt,value
2022-09-28T00:01:44.656Z,97478.59
2022-09-28T00:04:12.228Z,97476.84
2022-09-28T00:06:39.593Z,97478.44
2022-09-28T00:09:06.316Z,97476.81
2022-09-28T00:11:33.319Z,97480.28
2022-09-28T00:14:03.543Z,97480.59
2022-09-28T00:16:33.842Z,97477.16
2022-09-28T00:19:00.445Z,97472.84
2022-09-28T00:21:31.713Z,97463.31
2022-09-28T00:24:12.659Z,97463.25
2022-09-28T00:26:44.690Z,97454.72
2022-09-28T00:29:24.986Z,97470.25
2022-09-28T00:31:53.085Z,97464.19
2022-09-28T00:34:20.224Z,97459.94
2022-09-28T00:36:47.292Z,97463.38
2022-09-28T00:39:15.366Z,97448.75
2022-09-28T00:41:42.593Z,97445.44
2022-09-28T00:44:27.559Z,97451.38
2022-09-28T00:47:15.331Z,97443.78
2022-09-28T00:50:05.766Z,97446.03
2022-09-28T00:52:35.805Z,97452.09
2022-09-28T00:55:04.950Z,97445.09
2022-09-28T00:57:32.735Z,97434.84
2022-09-28T01:00:00.981Z,97443.63
2022-09-28T01:02:27.717Z,97432.50
2022-09-28T01:04:59.384Z,97441.13
2022-09-28T01:07:26.491Z,97435.13
2022-09-28T01:09:54.199Z,97433.63
2022-09-28T01:12:20.813Z,97433.53
2022-09-28T01:14:47.861Z,97425.94
2022-09-28T01:17:16.323Z,97432.81
2022-09-28T01:20:13.377Z,97432.88
2022-09-28T01:23:01.664Z,97443.13
2022-09-28T01:25:41.732Z,97429.38
2022-09-28T01:28:14.622Z,97437.75
2022-09-28T01:30:56.426Z,97443.94
2022-09-28T01:33:26.743Z,97425.94
2022-09-28T01:36:12.079Z,97440.66
2022-09-28T01:39:00.919Z,97429.47
2022-09-28T01:41:30.200Z,97420.84
2022-09-28T01:43:57.583Z,97422.69
2022-09-28T01:46:28.161Z,97420.94
2022-09-28T01:48:58.509Z,97415.81
2022-09-28T01:51:43.959Z,97416.66
2022-09-28T01:54:18.025Z,97423.66
2022-09-28T01:56:54.508Z,97415.88
2022-09-28T01:59:30.023Z,97415.81
2022-09-28T02:02:04.114Z,97407.25
2022-09-28T02:04:36.119Z,97412.44
2022-09-28T02:07:13.465Z,97402.09
2022-09-28T02:09:47.212Z,97410.91
2022-09-28T02:12:20.149Z,97405.00
2022-09-28T02:14:49.395Z,97404.06
2022-09-28T02:17:16.291Z,97407.47
2022-09-28T02:19:43.430Z,97394.50
2022-09-28T02:22:29.687Z,97400.59
2022-09-28T02:25:01.369Z,97398.84
2022-09-28T02:27:35.541Z,97393.75
2022-09-28T02:30:03.678Z,97390.19
2022-09-28T02:32:32.365Z,97392.06
2022-09-28T02:34:59.436Z,97386.84
2022-09-28T02:37:27.397Z,97390.28
2022-09-28T02:39:53.902Z,97388.53
2022-09-28T02:42:25.754Z,97393.72
2022-09-28T02:45:22.383Z,97391.75
2022-09-28T02:47:58.487Z,97389.16
2022-09-28T02:50:40.016Z,97384.84
2022-09-28T02:53:14.465Z,97383.25
2022-09-28T02:55:59.140Z,97383.16
2022-09-28T02:58:55.014Z,97374.59
2022-09-28T03:01:33.650Z,97373.81
2022-09-28T03:04:12.561Z,97373.00
2022-09-28T03:07:01.390Z,97388.53
2022-09-28T03:09:56.088Z,97380.66
2022-09-28T03:12:23.550Z,97389.34
2022-09-28T03:15:06.844Z,97390.19
2022-09-28T03:17:33.362Z,97397.09
2022-09-28T03:19:59.901Z,97390.31
2022-09-28T03:22:26.404Z,97386.66
2022-09-28T03:24:52.946Z,97403.88
2022-09-28T03:27:19.601Z,97393.69
2022-09-28T03:29:46.147Z,97407.31
2022-09-28T03:32:12.712Z,97399.56
2022-09-28T03:34:42.393Z,97405.66
2022-09-28T03:37:08.917Z,97409.06
2022-09-28T03:39:35.461Z,97404.84
2022-09-28T03:42:01.955Z,97401.41
2022-09-28T03:44:31.272Z,97406.50
2022-09-28T03:46:57.784Z,97406.44
2022-09-28T03:49:24.292Z,97401.34
2022-09-28T03:51:50.876Z,97398.88
2022-09-28T03:54:17.530Z,97406.59
2022-09-28T03:56:44.028Z,97404.06
2022-09-28T03:59:10.745Z,97399.72
2022-09-28T04:01:38.444Z,97405.78
2022-09-28T04:04:04.997Z,97399.03
2022-09-28T04:06:31.562Z,97416.03
2022-09-28T04:08:58.177Z,97410.81
2022-09-28T04:11:26.984Z,97410.84
2022-09-28T04:13:53.628Z,97414.34
2022-09-28T04:16:20.330Z,97415.97
2022-09-28T04:18:48.371Z,97417.72
2022-09-28T04:21:16.708Z,97414.34
2022-09-28T04:23:44.276Z,97404.75
2022-09-28T04:26:20.209Z,97409.97
2022-09-28T04:29:06.911Z,97411.66
2022-09-28T04:31:42.269Z,97417.63
2022-09-28T04:34:09.037Z,97413.28
2022-09-28T04:36:35.649Z,97413.28
2022-09-28T04:39:02.287Z,97410.69
2022-09-28T04:41:28.915Z,97414.03
2022-09-28T04:43:55.434Z,97424.44
2022-09-28T04:46:22.090Z,97421.69
2022-09-28T04:48:48.590Z,97424.50
2022-09-28T04:51:15.193Z,97419.31
2022-09-28T04:53:41.806Z,97420.00
2022-09-28T04:56:11.693Z,97425.38
2022-09-28T04:58:41.305Z,97428.75
2022-09-28T05:01:11.715Z,97433.78
2022-09-28T05:03:39.425Z,97425.25
2022-09-28T05:06:08.775Z,97432.09
2022-09-28T05:08:35.860Z,97441.47
2022-09-28T05:11:07.134Z,97434.72
2022-09-28T05:13:40.748Z,97439.84
2022-09-28T05:16:08.014Z,97451.72
2022-09-28T05:18:39.314Z,97445.78
2022-09-28T05:21:13.570Z,97445.53
2022-09-28T05:23:40.965Z,97456.66
2022-09-28T05:26:07.849Z,97455.06
2022-09-28T05:28:35.450Z,97452.41
2022-09-28T05:31:03.568Z,97453.31
2022-09-28T05:33:31.119Z,97457.56
2022-09-28T05:36:01.354Z,97455.00
2022-09-28T05:38:28.955Z,97454.88
2022-09-28T05:40:56.156Z,97457.22
2022-09-28T05:43:22.811Z,97456.34
2022-09-28T05:45:53.010Z,97462.28
2022-09-28T05:48:22.053Z,97459.00
2022-09-28T05:50:52.737Z,97458.91
2022-09-28T05:53:19.587Z,97454.69
2022-09-28T05:55:46.185Z,97471.78
2022-09-28T05:58:12.872Z,97457.88
2022-09-28T06:00:39.598Z,97454.59
2022-09-28T06:03:09.492Z,97466.41
2022-09-28T06:05:36.851Z,97469.91
2022-09-28T06:08:08.269Z,97466.47
2022-09-28T06:10:34.951Z,97470.03
2022-09-28T06:13:02.130Z,97468.19
2022-09-28T06:15:30.714Z,97469.25
2022-09-28T06:18:00.997Z,97476.91
2022-09-28T06:20:29.187Z,97468.41
2022-09-28T06:22:56.054Z,97474.50
2022-09-28T06:25:23.580Z,97472.75
2022-09-28T06:28:01.285Z,97488.13
2022-09-28T06:30:29.142Z,97485.38
2022-09-28T06:32:57.458Z,97482.91
2022-09-28T06:35:25.497Z,97484.69
2022-09-28T06:37:52.638Z,97491.63
2022-09-28T06:40:20.372Z,97500.25
2022-09-28T06:43:01.188Z,97491.59
2022-09-28T06:45:28.856Z,97499.44
2022-09-28T06:47:57.477Z,97493.47
2022-09-28T06:50:28.584Z,97498.13
2022-09-28T06:52:55.455Z,97508.88
2022-09-28T06:55:22.216Z,97512.34
2022-09-28T06:57:59.896Z,97516.03
2022-09-28T07:00:27.917Z,97515.41
2022-09-28T07:02:54.453Z,97521.66
2022-09-28T07:05:26.804Z,97524.50
2022-09-28T07:07:58.866Z,97528.91
2022-09-28T07:10:28.003Z,97530.66
2022-09-28T07:12:55.814Z,97532.22
2022-09-28T07:15:22.860Z,97532.41
2022-09-28T07:17:59.748Z,97536.06
2022-09-28T07:20:29.128Z,97542.72
2022-09-28T07:22:58.673Z,97539.41
2022-09-28T07:25:32.342Z,97544.25
2022-09-28T07:27:59.938Z,97539.63
2022-09-28T07:30:28.324Z,97550.47
2022-09-28T07:32:55.133Z,97553.59
2022-09-28T07:35:22.326Z,97556.16
2022-09-28T07:37:48.839Z,97567.16
2022-09-28T07:40:34.146Z,97566.81
2022-09-28T07:43:07.787Z,97564.31
2022-09-28T07:45:36.119Z,97568.31
2022-09-28T07:48:03.116Z,97569.22
2022-09-28T07:50:30.025Z,97583.56
2022-09-28T07:52:57.649Z,97579.41
2022-09-28T07:55:24.825Z,97586.47
2022-09-28T07:58:01.011Z,97584.63
2022-09-28T08:00:33.244Z,97593.09
2022-09-28T08:03:03.571Z,97593.50
2022-09-28T08:05:32.506Z,97596.13
2022-09-28T08:07:59.673Z,97607.91
2022-09-28T08:10:30.384Z,97603.69
2022-09-28T08:13:00.533Z,97605.50
2022-09-28T08:15:35.030Z,97605.53
2022-09-28T08:18:02.928Z,97604.06
2022-09-28T08:20:51.637Z,97599.78
2022-09-28T08:23:18.678Z,97604.16
2022-09-28T08:25:52.738Z,97609.03
2022-09-28T08:28:20.360Z,97608.25
2022-09-28T08:30:47.705Z,97608.19
2022-09-28T08:33:15.376Z,97614.31
2022-09-28T08:35:42.004Z,97617.84
2022-09-28T08:38:09.277Z,97624.16
2022-09-28T08:40:50.238Z,97623.19
2022-09-28T08:43:45.481Z,97625.81
2022-09-28T08:46:14.110Z,97627.72
2022-09-28T08:49:25.911Z,97632.06
2022-09-28T08:52:05.107Z,97633.97
2022-09-28T08:54:48.841Z,97637.31
2022-09-28T08:57:21.322Z,97638.13
2022-09-28T08:59:56.876Z,97642.53
2022-09-28T09:02:33.799Z,97632.75
2022-09-28T09:05:04.353Z,97639.00
2022-09-28T09:07:46.156Z,97643.31
2022-09-28T09:10:36.306Z,97630.28
2022-09-28T09:13:21.392Z,97644.47
2022-09-28T09:15:57.753Z,97634.25
2022-09-28T09:18:37.272Z,97637.06
2022-09-28T09:21:39.506Z,97632.22
2022-09-28T09:24:27.428Z,97637.22
2022-09-28T09:27:13.135Z,97639.25
2022-09-28T09:29:55.096Z,97634.38
2022-09-28T09:32:49.340Z,97633.72
2022-09-28T09:35:53.363Z,97632.94
2022-09-28T09:38:43.487Z,97636.28
2022-09-28T09:41:43.987Z,97635.38
2022-09-28T09:44:23.121Z,97637.13
2022-09-28T09:46:59.774Z,97632.81
2022-09-28T09:49:34.913Z,97631.88
2022-09-28T09:52:10.021Z,97637.13
2022-09-28T09:54:44.851Z,97633.63
2022-09-28T10:22:56.841Z,97653.03
2022-09-28T10:25:24.971Z,97647.91
2022-09-28T10:27:52.708Z,97639.53
2022-09-28T10:30:28.167Z,97641.63
2022-09-28T10:32:59.371Z,97643.63
2022-09-28T10:35:28.552Z,97631.59
2022-09-28T10:37:59.395Z,97629.03
2022-09-28T10:40:38.948Z,97636.81
2022-09-28T10:43:28.889Z,97650.47
2022-09-28T10:46:13.096Z,97644.44
2022-09-28T10:48:45.829Z,97644.47
2022-09-28T10:51:12.450Z,97636.59
2022-09-28T10:53:40.137Z,97641.16
2022-09-28T10:56:28.794Z,97641.31
2022-09-28T10:58:56.012Z,97644.88
2022-09-28T11:01:33.828Z,97640.75
2022-09-28T11:04:14.686Z,97635.56
2022-09-28T11:06:44.794Z,97641.63
2022-09-28T11:09:40.466Z,97639.94
2022-09-28T11:12:15.699Z,97627.84
2022-09-28T11:14:53.043Z,97635.66
2022-09-28T11:17:43.908Z,97642.50
2022-09-28T11:20:28.953Z,97627.81
2022-09-28T11:23:30.200Z,97632.94
2022-09-28T11:26:08.364Z,97623.53
2022-09-28T11:28:46.115Z,97630.34
2022-09-28T11:31:19.094Z,97625.97
2022-09-28T11:34:18.563Z,97633.81
2022-09-28T11:37:18.457Z,97642.28
2022-09-28T11:43:44.816Z,97632.75
2022-09-28T12:13:05.234Z,97631.25
2022-09-28T12:16:11.618Z,97634.69
2022-09-28T12:18:54.282Z,97633.88
2022-09-28T12:21:33.437Z,97629.69
2022-09-28T12:24:23.559Z,97642.31
2022-09-28T12:26:56.325Z,97619.31
2022-09-28T12:29:36.772Z,97626.22
2022-09-28T12:32:37.709Z,97628.06
2022-09-28T12:35:12.418Z,97621.34
2022-09-28T12:37:53.933Z,97623.13
2022-09-28T12:40:32.941Z,97628.13
2022-09-28T12:43:33.600Z,97625.56
2022-09-28T12:46:34.909Z,97625.38
2022-09-28T12:50:33.418Z,97622.88
2022-09-28T12:52:39.379Z,97626.34
2022-09-28T12:55:56.555Z,97619.50
2022-09-28T12:58:44.664Z,97625.53
2022-09-28T13:01:23.994Z,97623.75
2022-09-28T13:03:59.715Z,97620.31
2022-09-28T13:06:44.365Z,97624.59
2022-09-28T13:09:22.588Z,97622.88
2022-09-28T13:12:00.157Z,97619.56
2022-09-28T13:14:43.138Z,97622.91
2022-09-28T13:17:26.333Z,97611.00
2022-09-28T13:20:32.148Z,97609.19
2022-09-28T13:23:20.325Z,97604.06
2022-09-28T13:25:53.916Z,97606.63
2022-09-28T13:28:26.246Z,97600.50
2022-09-28T13:30:55.799Z,97597.91
2022-09-28T13:33:43.914Z,97603.94
2022-09-28T13:36:28.578Z,97598.72
2022-09-28T13:38:56.700Z,97602.06
2022-09-28T13:41:28.966Z,97603.84
2022-09-28T13:44:10.899Z,97604.94
2022-09-28T13:47:08.592Z,97595.66
2022-09-28T13:50:09.582Z,97599.97
2022-09-28T13:53:15.371Z,97609.31
2022-09-28T13:55:49.923Z,97601.75
2022-09-28T13:58:30.199Z,97597.56
2022-09-28T14:01:19.173Z,97601.94
2022-09-28T14:04:25.588Z,97600.34
2022-09-28T14:07:16.796Z,97597.88
2022-09-28T14:10:06.415Z,97604.59
2022-09-28T14:12:32.814Z,97603.63
2022-09-28T14:14:59.980Z,97606.94
2022-09-28T14:17:29.267Z,97607.75
2022-09-28T14:20:09.232Z,97605.19
2022-09-28T14:23:10.706Z,97606.09
2022-09-28T14:26:12.272Z,97600.81
2022-09-28T14:29:09.990Z,97607.84
2022-09-28T14:31:41.115Z,97608.72
2022-09-28T14:34:24.253Z,97601.06
2022-09-28T14:37:23.527Z,97603.66
2022-09-28T14:40:09.395Z,97599.25
2022-09-28T14:42:36.049Z,97603.41
2022-09-28T14:45:06.196Z,97604.28
2022-09-28T14:47:43.303Z,97605.16
2022-09-28T14:50:29.901Z,97601.06
2022-09-28T14:53:14.140Z,97603.63
2022-09-28T14:55:50.228Z,97600.25
2022-09-28T14:58:36.754Z,97605.53
2022-09-28T15:01:06.410Z,97601.09
2022-09-28T15:03:35.615Z,97603.75
2022-09-28T15:06:02.267Z,97604.66
2022-09-28T15:11:06.396Z,97608.22
2022-09-28T15:13:33.115Z,97610.72
2022-09-28T15:16:00.680Z,97605.56
2022-09-28T15:18:49.464Z,97604.81
2022-09-28T15:21:16.406Z,97603.13
2022-09-28T15:23:44.309Z,97599.72
2022-09-28T15:26:21.900Z,97604.84
2022-09-28T15:28:48.442Z,97610.78
2022-09-28T15:31:30.684Z,97613.34
2022-09-28T15:34:15.677Z,97608.19
2022-09-28T15:36:44.373Z,97602.00
2022-09-28T15:39:22.856Z,97608.81
2022-09-28T15:41:55.027Z,97611.50
2022-09-28T15:44:56.527Z,97609.75
2022-09-28T15:47:38.911Z,97610.66
2022-09-28T15:50:31.200Z,97613.88
2022-09-28T15:53:12.395Z,97613.00
2022-09-28T15:55:48.773Z,97608.72
2022-09-28T15:58:20.529Z,97607.84
2022-09-28T16:00:51.878Z,97619.09
2022-09-28T16:03:31.214Z,97619.13
2022-09-28T16:05:57.710Z,97625.91
2022-09-28T16:09:00.336Z,97619.78
2022-09-28T16:11:54.047Z,97624.09
2022-09-28T16:14:40.384Z,97620.56
2022-09-28T16:17:33.347Z,97615.34
2022-09-28T16:20:01.872Z,97610.09
2022-09-28T16:22:29.008Z,97620.31
2022-09-28T16:25:00.144Z,97622.06
2022-09-28T16:27:40.288Z,97624.56
2022-09-28T16:30:32.676Z,97629.84
2022-09-28T16:33:06.295Z,97633.22
2022-09-28T16:35:52.614Z,97629.78
2022-09-28T16:38:28.296Z,97635.78
2022-09-28T16:41:03.107Z,97634.94
2022-09-28T16:43:37.578Z,97640.91
2022-09-28T16:46:22.358Z,97635.72
2022-09-28T16:48:52.747Z,97645.94
2022-09-28T16:51:23.552Z,97648.59
2022-09-28T16:54:13.832Z,97645.94
2022-09-28T16:56:40.915Z,97658.75
2022-09-28T16:59:14.090Z,97655.38
2022-09-28T17:01:43.950Z,97657.84
2022-09-28T17:04:11.544Z,97662.13
2022-09-28T17:06:39.003Z,97658.66
2022-09-28T17:09:07.184Z,97658.63
2022-09-28T17:11:36.937Z,97667.19
2022-09-28T17:14:10.437Z,97666.88
2022-09-28T17:19:33.516Z,97665.13
2022-09-28T17:22:00.617Z,97667.50
2022-09-28T17:24:30.277Z,97669.28
2022-09-28T17:26:57.322Z,97674.47
2022-09-28T17:29:23.988Z,97667.41
2022-09-28T17:31:50.613Z,97675.09
2022-09-28T17:34:18.122Z,97682.59
2022-09-28T17:36:45.045Z,97678.34
2022-09-28T17:39:15.541Z,97679.59
2022-09-28T17:41:42.134Z,97683.88
2022-09-28T17:44:08.741Z,97686.97
2022-09-28T17:46:40.816Z,97685.41
2022-09-28T17:49:10.674Z,97687.88
2022-09-28T17:51:39.324Z,97684.16
2022-09-28T17:54:09.850Z,97686.75
2022-09-28T17:56:45.659Z,97685.41
2022-09-28T17:59:18.399Z,97687.56
2022-09-28T18:01:45.294Z,97693.69
2022-09-28T18:04:33.306Z,97688.63
2022-09-28T18:07:02.166Z,97699.75
2022-09-28T18:09:28.824Z,97692.81
2022-09-28T18:12:04.790Z,97693.38
2022-09-28T18:14:34.035Z,97695.94
2022-09-28T18:17:00.563Z,97698.81
2022-09-28T18:19:31.802Z,97706.81
2022-09-28T18:21:58.705Z,97709.66
2022-09-28T18:24:25.261Z,97709.03
2022-09-28T18:26:51.812Z,97711.50
2022-09-28T18:29:18.545Z,97713.00
2022-09-28T18:31:45.116Z,97721.59
2022-09-28T18:34:12.472Z,97728.72
2022-09-28T18:36:39.043Z,97721.25
2022-09-28T18:39:08.034Z,97727.44
2022-09-28T18:41:34.557Z,97734.06
2022-09-28T18:44:01.281Z,97726.56
2022-09-28T18:46:29.152Z,97732.00
2022-09-28T18:48:56.344Z,97735.50
2022-09-28T18:51:22.937Z,97733.69
2022-09-28T18:53:50.098Z,97741.41
2022-09-28T18:56:21.168Z,97732.59
2022-09-28T18:58:51.607Z,97735.38
2022-09-28T19:01:35.239Z,97736.09
2022-09-28T19:04:04.717Z,97739.31
2022-09-28T19:06:32.077Z,97737.75
2022-09-28T19:08:58.903Z,97742.06
2022-09-28T19:11:25.955Z,97745.72
2022-09-28T19:13:54.132Z,97749.06
2022-09-28T19:16:22.871Z,97756.00
2022-09-28T19:18:51.419Z,97757.25
2022-09-28T19:21:18.161Z,97752.44
2022-09-28T19:23:49.255Z,97763.41
2022-09-28T19:26:19.062Z,97755.78
2022-09-28T19:28:45.713Z,97762.25
2022-09-28T19:31:12.754Z,97758.97
2022-09-28T19:33:40.473Z,97763.03
2022-09-28T19:36:09.980Z,97764.06
2022-09-28T19:38:37.957Z,97769.13
2022-09-28T19:41:12.403Z,97768.03
2022-09-28T19:43:39.098Z,97765.06
2022-09-28T19:46:06.763Z,97770.19
2022-09-28T19:48:35.353Z,97762.28
2022-09-28T19:51:04.280Z,97771.38
2022-09-28T19:53:36.871Z,97769.84
2022-09-28T19:56:07.797Z,97772.59
2022-09-28T19:58:36.315Z,97773.88
2022-09-28T20:01:06.626Z,97768.56
2022-09-28T20:03:34.230Z,97774.75
2022-09-28T20:06:01.829Z,97774.28
2022-09-28T20:08:30.229Z,97768.22
2022-09-28T20:10:59.632Z,97770.44
2022-09-28T20:13:35.195Z,97775.25
2022-09-28T20:16:10.367Z,97780.84
2022-09-28T20:18:50.110Z,97780.63
2022-09-28T20:21:20.106Z,97773.47
2022-09-28T20:23:47.453Z,97785.84
2022-09-28T20:26:15.268Z,97787.00
2022-09-28T20:28:41.927Z,97789.63
2022-09-28T20:31:13.990Z,97788.78
2022-09-28T20:33:49.909Z,97784.97
2022-09-28T20:36:19.030Z,97800.41
2022-09-28T20:38:53.660Z,97791.19
2022-09-28T20:41:22.767Z,97791.03
2022-09-28T20:43:57.610Z,97793.91
2022-09-28T20:46:28.079Z,97789.63
2022-09-28T20:48:55.860Z,97791.25
2022-09-28T20:51:22.759Z,97789.78
2022-09-28T20:53:54.465Z,97796.41
2022-09-28T20:56:34.710Z,97796.66
2022-09-28T20:59:01.212Z,97794.44
2022-09-28T21:01:29.883Z,97801.00
2022-09-28T21:04:01.845Z,97801.88
2022-09-28T21:06:31.160Z,97792.47
2022-09-28T21:08:58.144Z,97790.50
2022-09-28T21:11:26.219Z,97792.78
2022-09-28T21:13:54.633Z,97800.47
2022-09-28T21:16:21.548Z,97792.13
2022-09-28T21:18:48.380Z,97794.94
2022-09-28T21:21:17.108Z,97792.22
2022-09-28T21:23:44.927Z,97790.81
2022-09-28T21:26:13.500Z,97793.00
2022-09-28T21:28:40.420Z,97789.22
2022-09-28T21:31:09.533Z,97792.53
2022-09-28T21:33:36.189Z,97793.09
2022-09-28T21:36:04.396Z,97803.25
2022-09-28T21:38:31.167Z,97793.44
2022-09-28T21:40:59.069Z,97795.00
2022-09-28T21:43:27.602Z,97801.78
2022-09-28T21:45:55.961Z,97801.25
2022-09-28T21:48:23.880Z,97802.94
2022-09-28T21:51:05.483Z,97798.69
2022-09-28T21:53:36.719Z,97800.34
2022-09-28T21:56:05.301Z,97796.34
2022-09-28T21:58:33.578Z,97803.81
2022-09-28T22:01:07.427Z,97800.91
2022-09-28T22:03:37.898Z,97799.19
2022-09-28T22:06:05.294Z,97801.00
2022-09-28T22:08:32.538Z,97794.59
2022-09-28T22:11:01.280Z,97804.91
2022-09-28T22:13:33.251Z,97797.34
2022-09-28T22:16:00.190Z,97807.69
2022-09-28T22:18:28.342Z,97796.34
2022-09-28T22:21:11.407Z,97798.53
2022-09-28T22:23:38.722Z,97806.97
2022-09-28T22:26:08.645Z,97808.56
2022-09-28T22:28:35.428Z,97810.13
2022-09-28T22:31:02.049Z,97813.81
2022-09-28T22:33:28.661Z,97802.28
2022-09-28T22:35:55.482Z,97801.56
2022-09-28T22:38:24.002Z,97796.44
2022-09-28T22:40:52.911Z,97800.78
2022-09-28T22:43:24.479Z,97805.31
2022-09-28T22:46:00.446Z,97810.03
2022-09-28T22:48:27.012Z,97808.72
2022-09-28T22:50:53.544Z,97812.94
2022-09-28T22:53:20.079Z,97810.13
2022-09-28T22:55:46.671Z,97804.03
2022-09-28T22:58:13.744Z,97807.97
2022-09-28T23:00:40.297Z,97809.06
2022-09-28T23:03:07.331Z,97808.56
2022-09-28T23:05:33.959Z,97807.44
